Hauptseite
METAR-TAF:

METAR-TAF

Flughäfen :

Flughafen Brüssel-Zaventem

Brüssel, Belgien

Breite: 50-54N, Länge: 004-32E, Höhe: 55 m

Beobachtung

Neuester Wetterbericht von vor 17 Minuten, um 11:20 UTC
Wind 12 kt aus West/Südwest, variierte zwischen Süd/Südwest und West
Temperatur 23°C
Luftfeuchtigkeit 53%
Luftdruck 1017 hPa
Sichtweite 10 km oder mehr
Leicht bewölkt in der Höhe von 3600 ft

METAR: EBBR 191120Z 24012KT 200V270 9999 FEW036 23/13 Q1017 NOSIG

Zeit: 13:37 (11:37 UTC)

Prognose

Neuester Wetterbericht von vor 6 Stunden und 27 Minuten, um 05:10 UTC
Gültige Prognose vom 19 um 06 UTC bis 20 um 12 UTC
Wind 8 kt aus Süd/Südwest
Sichtweite 10 km oder mehr
keine Wolken unter 1500 m und keine Kumulonimbus oder Gewitterwolken
Zeitweise
vom 19 um 11 UTC bis 19 um 16 UTC
Wind 15 kt aus Südwest, Böen bis zu 25 kt

TAF: EBBR 190510Z 1906/2012 21008KT CAVOK TEMPO 1911/1916 23015G25KT

Wetterbeobachtungen und Prognosen von mehr als 4000 Flughäfen (METAR und TAF Bericht).

Die verfügbaren Stationen werden durch gelbe und rote Markierungen auf der Karte dargestellt.

Führen Sie die Maus auf sie, um den Namen der Station zu sehen.

Darauf klicken, um die Beobachtung von Wetterbeobachtungen und Prognosen zu sehen.

Um die Karte zu ändern : klicken Sie auf den grünen Tasten mit einem schwarzen Kreuz Zum Vergrößern, auf den grünen Button mit einem Gedankenstrich zu verkleinern, oder auf die grünen Pfeile für benachbarte Karten.


METAR-TAF: